sensor_id;sensor_type;location;lat;lon;timestamp;P1;durP1;ratioP1;P2;durP2;ratioP2
10661;SDS011;5379;51.034;7.006;2022-10-14T00:01:42;8.87;;;7.40;;
10661;SDS011;5379;51.034;7.006;2022-10-14T00:04:09;9.57;;;7.97;;
10661;SDS011;5379;51.034;7.006;2022-10-14T00:06:36;10.33;;;7.73;;
10661;SDS011;5379;51.034;7.006;2022-10-14T00:09:04;7.90;;;7.07;;
10661;SDS011;5379;51.034;7.006;2022-10-14T00:11:34;8.80;;;7.10;;
10661;SDS011;5379;51.034;7.006;2022-10-14T00:14:03;10.30;;;7.97;;
10661;SDS011;5379;51.034;7.006;2022-10-14T00:16:32;9.30;;;7.37;;
10661;SDS011;5379;51.034;7.006;2022-10-14T00:19:01;9.87;;;7.57;;
10661;SDS011;5379;51.034;7.006;2022-10-14T00:21:29;7.43;;;6.73;;
10661;SDS011;5379;51.034;7.006;2022-10-14T00:23:57;14.70;;;7.57;;
10661;SDS011;5379;51.034;7.006;2022-10-14T00:26:25;8.40;;;7.67;;
10661;SDS011;5379;51.034;7.006;2022-10-14T00:28:56;15.97;;;8.20;;
10661;SDS011;5379;51.034;7.006;2022-10-14T00:31:24;8.73;;;7.67;;
10661;SDS011;5379;51.034;7.006;2022-10-14T00:33:51;8.23;;;7.47;;
10661;SDS011;5379;51.034;7.006;2022-10-14T00:36:19;8.20;;;7.40;;
10661;SDS011;5379;51.034;7.006;2022-10-14T00:38:48;7.97;;;7.27;;
10661;SDS011;5379;51.034;7.006;2022-10-14T00:41:17;8.67;;;7.77;;
10661;SDS011;5379;51.034;7.006;2022-10-14T00:43:50;9.77;;;8.07;;
10661;SDS011;5379;51.034;7.006;2022-10-14T00:46:23;8.37;;;7.33;;
10661;SDS011;5379;51.034;7.006;2022-10-14T00:48:52;9.50;;;7.83;;
10661;SDS011;5379;51.034;7.006;2022-10-14T00:51:19;8.03;;;7.33;;
10661;SDS011;5379;51.034;7.006;2022-10-14T00:53:47;11.50;;;7.60;;
10661;SDS011;5379;51.034;7.006;2022-10-14T00:56:15;7.20;;;6.60;;
10661;SDS011;5379;51.034;7.006;2022-10-14T00:58:45;12.07;;;7.53;;
10661;SDS011;5379;51.034;7.006;2022-10-14T01:01:14;7.70;;;6.93;;
10661;SDS011;5379;51.034;7.006;2022-10-14T01:03:41;10.97;;;8.30;;
10661;SDS011;5379;51.034;7.006;2022-10-14T01:06:11;9.77;;;7.87;;
10661;SDS011;5379;51.034;7.006;2022-10-14T01:08:45;10.10;;;7.53;;
10661;SDS011;5379;51.034;7.006;2022-10-14T01:11:20;8.53;;;7.57;;
10661;SDS011;5379;51.034;7.006;2022-10-14T01:13:57;10.83;;;7.17;;
10661;SDS011;5379;51.034;7.006;2022-10-14T01:16:33;7.13;;;6.40;;
10661;SDS011;5379;51.034;7.006;2022-10-14T01:19:12;10.10;;;7.03;;
10661;SDS011;5379;51.034;7.006;2022-10-14T01:22:03;9.60;;;7.47;;
10661;SDS011;5379;51.034;7.006;2022-10-14T01:24:39;7.97;;;7.00;;
10661;SDS011;5379;51.034;7.006;2022-10-14T01:27:16;8.07;;;7.27;;
10661;SDS011;5379;51.034;7.006;2022-10-14T01:32:44;8.03;;;7.33;;
10661;SDS011;5379;51.034;7.006;2022-10-14T01:35:30;8.77;;;6.83;;
10661;SDS011;5379;51.034;7.006;2022-10-14T01:38:07;7.77;;;6.67;;
10661;SDS011;5379;51.034;7.006;2022-10-14T01:40:39;9.00;;;7.33;;
10661;SDS011;5379;51.034;7.006;2022-10-14T01:43:10;12.80;;;7.17;;
10661;SDS011;5379;51.034;7.006;2022-10-14T01:45:41;8.07;;;6.80;;
10661;SDS011;5379;51.034;7.006;2022-10-14T01:48:10;7.87;;;7.03;;
10661;SDS011;5379;51.034;7.006;2022-10-14T01:50:42;9.83;;;7.27;;
10661;SDS011;5379;51.034;7.006;2022-10-14T01:53:12;7.60;;;6.80;;
10661;SDS011;5379;51.034;7.006;2022-10-14T01:55:45;10.43;;;6.47;;
10661;SDS011;5379;51.034;7.006;2022-10-14T01:58:13;6.90;;;6.00;;
10661;SDS011;5379;51.034;7.006;2022-10-14T02:00:43;7.07;;;6.17;;
10661;SDS011;5379;51.034;7.006;2022-10-14T02:03:12;5.87;;;5.40;;
10661;SDS011;5379;51.034;7.006;2022-10-14T02:05:40;6.43;;;5.90;;
10661;SDS011;5379;51.034;7.006;2022-10-14T02:08:12;5.97;;;5.37;;
10661;SDS011;5379;51.034;7.006;2022-10-14T02:10:50;7.50;;;6.00;;
10661;SDS011;5379;51.034;7.006;2022-10-14T02:13:33;6.40;;;5.90;;
10661;SDS011;5379;51.034;7.006;2022-10-14T02:16:13;6.00;;;5.40;;
10661;SDS011;5379;51.034;7.006;2022-10-14T02:18:47;5.90;;;5.40;;
10661;SDS011;5379;51.034;7.006;2022-10-14T02:21:17;6.13;;;4.73;;
10661;SDS011;5379;51.034;7.006;2022-10-14T02:23:51;7.60;;;5.97;;
10661;SDS011;5379;51.034;7.006;2022-10-14T02:26:20;6.23;;;5.10;;
10661;SDS011;5379;51.034;7.006;2022-10-14T02:28:49;6.03;;;4.83;;
10661;SDS011;5379;51.034;7.006;2022-10-14T02:31:19;5.73;;;5.20;;
10661;SDS011;5379;51.034;7.006;2022-10-14T02:33:49;6.47;;;4.83;;
10661;SDS011;5379;51.034;7.006;2022-10-14T02:36:19;7.87;;;5.27;;
10661;SDS011;5379;51.034;7.006;2022-10-14T02:38:48;6.20;;;5.60;;
10661;SDS011;5379;51.034;7.006;2022-10-14T02:41:18;5.13;;;4.73;;
10661;SDS011;5379;51.034;7.006;2022-10-14T02:43:47;9.10;;;5.70;;
10661;SDS011;5379;51.034;7.006;2022-10-14T02:46:18;8.33;;;5.37;;
10661;SDS011;5379;51.034;7.006;2022-10-14T02:48:46;6.70;;;4.97;;
10661;SDS011;5379;51.034;7.006;2022-10-14T02:51:14;5.33;;;4.83;;
10661;SDS011;5379;51.034;7.006;2022-10-14T02:53:41;8.17;;;4.93;;
10661;SDS011;5379;51.034;7.006;2022-10-14T02:56:08;7.70;;;5.30;;
10661;SDS011;5379;51.034;7.006;2022-10-14T02:58:36;7.67;;;5.37;;
10661;SDS011;5379;51.034;7.006;2022-10-14T03:01:02;6.63;;;5.57;;
10661;SDS011;5379;51.034;7.006;2022-10-14T03:03:31;5.40;;;5.00;;
10661;SDS011;5379;51.034;7.006;2022-10-14T03:05:58;5.03;;;4.67;;
10661;SDS011;5379;51.034;7.006;2022-10-14T03:08:25;5.70;;;4.83;;
10661;SDS011;5379;51.034;7.006;2022-10-14T03:10:52;5.07;;;4.70;;
10661;SDS011;5379;51.034;7.006;2022-10-14T03:13:19;6.27;;;5.63;;
10661;SDS011;5379;51.034;7.006;2022-10-14T03:15:46;5.97;;;5.40;;
10661;SDS011;5379;51.034;7.006;2022-10-14T03:18:14;10.47;;;5.43;;
10661;SDS011;5379;51.034;7.006;2022-10-14T03:20:43;4.53;;;4.17;;
10661;SDS011;5379;51.034;7.006;2022-10-14T03:23:10;4.80;;;4.33;;
10661;SDS011;5379;51.034;7.006;2022-10-14T03:25:38;8.87;;;4.70;;
10661;SDS011;5379;51.034;7.006;2022-10-14T03:28:05;5.13;;;4.47;;
10661;SDS011;5379;51.034;7.006;2022-10-14T03:30:32;4.47;;;4.03;;
10661;SDS011;5379;51.034;7.006;2022-10-14T03:32:59;4.40;;;3.97;;
10661;SDS011;5379;51.034;7.006;2022-10-14T03:35:26;5.80;;;4.20;;
10661;SDS011;5379;51.034;7.006;2022-10-14T03:37:55;4.33;;;3.97;;
10661;SDS011;5379;51.034;7.006;2022-10-14T03:40:26;5.50;;;3.97;;
10661;SDS011;5379;51.034;7.006;2022-10-14T03:42:53;4.53;;;4.13;;
10661;SDS011;5379;51.034;7.006;2022-10-14T03:45:23;4.43;;;4.13;;
10661;SDS011;5379;51.034;7.006;2022-10-14T03:47:50;5.33;;;4.83;;
10661;SDS011;5379;51.034;7.006;2022-10-14T03:50:17;6.43;;;4.70;;
10661;SDS011;5379;51.034;7.006;2022-10-14T03:52:44;4.53;;;4.23;;
10661;SDS011;5379;51.034;7.006;2022-10-14T03:55:12;4.57;;;4.27;;
10661;SDS011;5379;51.034;7.006;2022-10-14T03:57:40;5.03;;;4.63;;
10661;SDS011;5379;51.034;7.006;2022-10-14T04:00:07;6.07;;;5.67;;
10661;SDS011;5379;51.034;7.006;2022-10-14T04:02:35;6.57;;;5.93;;
10661;SDS011;5379;51.034;7.006;2022-10-14T04:05:02;10.83;;;6.07;;
10661;SDS011;5379;51.034;7.006;2022-10-14T04:07:29;5.50;;;5.07;;
10661;SDS011;5379;51.034;7.006;2022-10-14T04:09:56;6.20;;;5.60;;
10661;SDS011;5379;51.034;7.006;2022-10-14T04:12:24;5.53;;;5.03;;
10661;SDS011;5379;51.034;7.006;2022-10-14T04:14:51;5.60;;;4.90;;
10661;SDS011;5379;51.034;7.006;2022-10-14T04:17:20;5.40;;;4.87;;
10661;SDS011;5379;51.034;7.006;2022-10-14T04:19:47;6.53;;;5.67;;
10661;SDS011;5379;51.034;7.006;2022-10-14T04:22:15;5.47;;;5.03;;
10661;SDS011;5379;51.034;7.006;2022-10-14T04:24:42;5.60;;;5.10;;
10661;SDS011;5379;51.034;7.006;2022-10-14T04:27:09;6.63;;;4.83;;
10661;SDS011;5379;51.034;7.006;2022-10-14T04:29:37;8.30;;;4.97;;
10661;SDS011;5379;51.034;7.006;2022-10-14T04:32:04;7.63;;;5.13;;
10661;SDS011;5379;51.034;7.006;2022-10-14T04:34:31;6.00;;;5.00;;
10661;SDS011;5379;51.034;7.006;2022-10-14T04:36:58;5.17;;;4.77;;
10661;SDS011;5379;51.034;7.006;2022-10-14T04:39:25;6.87;;;5.33;;
10661;SDS011;5379;51.034;7.006;2022-10-14T04:41:52;4.97;;;4.67;;
10661;SDS011;5379;51.034;7.006;2022-10-14T04:44:19;11.20;;;5.60;;
10661;SDS011;5379;51.034;7.006;2022-10-14T04:46:47;6.07;;;5.57;;
10661;SDS011;5379;51.034;7.006;2022-10-14T04:49:14;8.07;;;5.77;;
10661;SDS011;5379;51.034;7.006;2022-10-14T04:51:42;5.43;;;5.03;;
10661;SDS011;5379;51.034;7.006;2022-10-14T04:54:09;6.93;;;5.17;;
10661;SDS011;5379;51.034;7.006;2022-10-14T04:56:36;6.20;;;5.60;;
10661;SDS011;5379;51.034;7.006;2022-10-14T04:59:03;6.07;;;4.93;;
10661;SDS011;5379;51.034;7.006;2022-10-14T05:01:33;9.57;;;5.23;;
10661;SDS011;5379;51.034;7.006;2022-10-14T05:04:01;10.27;;;4.90;;
10661;SDS011;5379;51.034;7.006;2022-10-14T05:06:29;6.00;;;4.73;;
10661;SDS011;5379;51.034;7.006;2022-10-14T05:08:55;14.13;;;5.27;;
10661;SDS011;5379;51.034;7.006;2022-10-14T05:11:22;7.57;;;5.90;;
10661;SDS011;5379;51.034;7.006;2022-10-14T05:13:49;6.77;;;6.07;;
10661;SDS011;5379;51.034;7.006;2022-10-14T05:16:16;6.33;;;5.73;;
10661;SDS011;5379;51.034;7.006;2022-10-14T05:18:43;8.23;;;5.93;;
10661;SDS011;5379;51.034;7.006;2022-10-14T05:21:12;6.93;;;5.47;;
10661;SDS011;5379;51.034;7.006;2022-10-14T05:23:39;6.17;;;5.57;;
10661;SDS011;5379;51.034;7.006;2022-10-14T05:26:06;5.10;;;4.57;;
10661;SDS011;5379;51.034;7.006;2022-10-14T05:28:34;6.67;;;4.97;;
10661;SDS011;5379;51.034;7.006;2022-10-14T05:31:02;9.03;;;5.73;;
10661;SDS011;5379;51.034;7.006;2022-10-14T05:33:29;5.00;;;4.20;;
10661;SDS011;5379;51.034;7.006;2022-10-14T05:35:56;4.73;;;4.33;;
10661;SDS011;5379;51.034;7.006;2022-10-14T05:38:25;5.07;;;4.67;;
10661;SDS011;5379;51.034;7.006;2022-10-14T05:40:52;5.17;;;4.63;;
10661;SDS011;5379;51.034;7.006;2022-10-14T05:43:19;4.80;;;4.40;;
10661;SDS011;5379;51.034;7.006;2022-10-14T05:45:48;4.63;;;4.23;;
10661;SDS011;5379;51.034;7.006;2022-10-14T05:48:15;4.10;;;3.80;;
10661;SDS011;5379;51.034;7.006;2022-10-14T05:50:43;7.87;;;5.10;;
10661;SDS011;5379;51.034;7.006;2022-10-14T05:53:10;8.73;;;4.73;;
10661;SDS011;5379;51.034;7.006;2022-10-14T05:55:38;6.50;;;5.40;;
10661;SDS011;5379;51.034;7.006;2022-10-14T05:58:05;6.20;;;5.70;;
10661;SDS011;5379;51.034;7.006;2022-10-14T06:00:33;6.10;;;5.47;;
10661;SDS011;5379;51.034;7.006;2022-10-14T06:03:00;8.33;;;6.80;;
10661;SDS011;5379;51.034;7.006;2022-10-14T06:05:27;5.93;;;5.37;;
10661;SDS011;5379;51.034;7.006;2022-10-14T06:07:54;7.67;;;5.17;;
10661;SDS011;5379;51.034;7.006;2022-10-14T06:10:21;8.97;;;5.20;;
10661;SDS011;5379;51.034;7.006;2022-10-14T06:12:49;7.33;;;4.87;;
10661;SDS011;5379;51.034;7.006;2022-10-14T06:15:16;6.53;;;4.83;;
10661;SDS011;5379;51.034;7.006;2022-10-14T06:17:43;10.37;;;5.03;;
10661;SDS011;5379;51.034;7.006;2022-10-14T06:20:10;6.70;;;4.50;;
10661;SDS011;5379;51.034;7.006;2022-10-14T06:22:37;4.60;;;4.13;;
10661;SDS011;5379;51.034;7.006;2022-10-14T06:25:04;4.70;;;4.20;;
10661;SDS011;5379;51.034;7.006;2022-10-14T06:27:32;5.57;;;4.07;;
10661;SDS011;5379;51.034;7.006;2022-10-14T06:30:00;4.57;;;4.10;;
10661;SDS011;5379;51.034;7.006;2022-10-14T06:32:27;4.50;;;3.80;;
10661;SDS011;5379;51.034;7.006;2022-10-14T06:34:54;5.07;;;4.57;;
10661;SDS011;5379;51.034;7.006;2022-10-14T06:37:21;8.73;;;4.33;;
10661;SDS011;5379;51.034;7.006;2022-10-14T06:39:48;6.00;;;3.90;;
10661;SDS011;5379;51.034;7.006;2022-10-14T06:42:15;6.90;;;4.27;;
10661;SDS011;5379;51.034;7.006;2022-10-14T06:44:42;6.20;;;4.17;;
10661;SDS011;5379;51.034;7.006;2022-10-14T06:47:10;6.90;;;4.63;;
10661;SDS011;5379;51.034;7.006;2022-10-14T06:49:37;3.93;;;3.63;;
10661;SDS011;5379;51.034;7.006;2022-10-14T06:52:04;4.07;;;3.77;;
10661;SDS011;5379;51.034;7.006;2022-10-14T06:54:31;3.77;;;3.47;;
10661;SDS011;5379;51.034;7.006;2022-10-14T06:56:58;3.73;;;3.37;;
10661;SDS011;5379;51.034;7.006;2022-10-14T06:59:25;5.90;;;4.43;;
10661;SDS011;5379;51.034;7.006;2022-10-14T07:01:53;4.50;;;3.77;;
10661;SDS011;5379;51.034;7.006;2022-10-14T07:04:21;6.30;;;3.63;;
10661;SDS011;5379;51.034;7.006;2022-10-14T07:06:49;4.63;;;3.30;;
10661;SDS011;5379;51.034;7.006;2022-10-14T07:09:17;5.57;;;4.07;;
10661;SDS011;5379;51.034;7.006;2022-10-14T07:11:44;4.57;;;4.20;;
10661;SDS011;5379;51.034;7.006;2022-10-14T07:14:11;3.90;;;3.60;;
10661;SDS011;5379;51.034;7.006;2022-10-14T07:16:38;4.43;;;4.03;;
10661;SDS011;5379;51.034;7.006;2022-10-14T07:19:05;4.40;;;4.00;;
10661;SDS011;5379;51.034;7.006;2022-10-14T07:21:33;4.17;;;3.87;;
10661;SDS011;5379;51.034;7.006;2022-10-14T07:24:00;4.40;;;4.03;;
10661;SDS011;5379;51.034;7.006;2022-10-14T07:26:28;4.43;;;4.03;;
10661;SDS011;5379;51.034;7.006;2022-10-14T07:28:55;5.90;;;4.50;;
10661;SDS011;5379;51.034;7.006;2022-10-14T07:31:23;4.07;;;3.77;;
10661;SDS011;5379;51.034;7.006;2022-10-14T07:33:50;8.77;;;4.60;;
10661;SDS011;5379;51.034;7.006;2022-10-14T07:36:17;8.67;;;4.20;;
10661;SDS011;5379;51.034;7.006;2022-10-14T07:38:46;3.93;;;3.67;;
10661;SDS011;5379;51.034;7.006;2022-10-14T07:41:14;4.90;;;4.40;;
10661;SDS011;5379;51.034;7.006;2022-10-14T07:43:42;6.30;;;4.33;;
10661;SDS011;5379;51.034;7.006;2022-10-14T07:46:10;5.93;;;4.23;;
10661;SDS011;5379;51.034;7.006;2022-10-14T07:48:37;6.17;;;4.33;;
10661;SDS011;5379;51.034;7.006;2022-10-14T07:51:05;4.80;;;4.40;;
10661;SDS011;5379;51.034;7.006;2022-10-14T07:53:33;5.47;;;4.90;;
10661;SDS011;5379;51.034;7.006;2022-10-14T07:56:02;9.03;;;4.50;;
10661;SDS011;5379;51.034;7.006;2022-10-14T07:58:29;5.83;;;4.73;;
10661;SDS011;5379;51.034;7.006;2022-10-14T08:00:57;7.53;;;4.07;;
10661;SDS011;5379;51.034;7.006;2022-10-14T08:03:24;8.47;;;3.77;;
10661;SDS011;5379;51.034;7.006;2022-10-14T08:05:57;4.20;;;3.80;;
10661;SDS011;5379;51.034;7.006;2022-10-14T08:08:25;7.87;;;3.97;;
10661;SDS011;5379;51.034;7.006;2022-10-14T08:11:01;3.77;;;3.47;;
10661;SDS011;5379;51.034;7.006;2022-10-14T08:13:30;4.17;;;3.73;;
10661;SDS011;5379;51.034;7.006;2022-10-14T08:15:58;3.93;;;3.63;;
10661;SDS011;5379;51.034;7.006;2022-10-14T08:18:25;3.43;;;3.23;;
10661;SDS011;5379;51.034;7.006;2022-10-14T08:20:52;4.73;;;4.23;;
10661;SDS011;5379;51.034;7.006;2022-10-14T08:23:19;3.93;;;3.63;;
10661;SDS011;5379;51.034;7.006;2022-10-14T08:25:47;4.27;;;3.87;;
10661;SDS011;5379;51.034;7.006;2022-10-14T08:28:16;5.30;;;3.97;;
10661;SDS011;5379;51.034;7.006;2022-10-14T08:30:43;5.97;;;5.00;;
10661;SDS011;5379;51.034;7.006;2022-10-14T08:33:12;5.03;;;4.53;;
10661;SDS011;5379;51.034;7.006;2022-10-14T08:35:39;5.10;;;3.90;;
10661;SDS011;5379;51.034;7.006;2022-10-14T08:38:06;4.83;;;4.13;;
10661;SDS011;5379;51.034;7.006;2022-10-14T08:40:35;4.57;;;4.17;;
10661;SDS011;5379;51.034;7.006;2022-10-14T08:43:16;4.13;;;3.83;;
10661;SDS011;5379;51.034;7.006;2022-10-14T08:45:48;6.47;;;4.33;;
10661;SDS011;5379;51.034;7.006;2022-10-14T08:48:21;5.80;;;4.10;;
10661;SDS011;5379;51.034;7.006;2022-10-14T08:50:52;5.57;;;4.93;;
10661;SDS011;5379;51.034;7.006;2022-10-14T08:53:24;4.40;;;4.07;;
10661;SDS011;5379;51.034;7.006;2022-10-14T08:55:55;6.53;;;4.33;;
10661;SDS011;5379;51.034;7.006;2022-10-14T08:58:27;5.10;;;4.70;;
10661;SDS011;5379;51.034;7.006;2022-10-14T09:00:59;4.93;;;4.47;;
10661;SDS011;5379;51.034;7.006;2022-10-14T09:03:30;5.43;;;5.03;;
10661;SDS011;5379;51.034;7.006;2022-10-14T09:06:01;4.87;;;4.47;;
10661;SDS011;5379;51.034;7.006;2022-10-14T09:08:31;6.20;;;5.13;;
10661;SDS011;5379;51.034;7.006;2022-10-14T09:11:02;5.70;;;5.20;;
10661;SDS011;5379;51.034;7.006;2022-10-14T09:13:33;5.60;;;5.10;;
10661;SDS011;5379;51.034;7.006;2022-10-14T09:16:03;8.07;;;5.27;;
10661;SDS011;5379;51.034;7.006;2022-10-14T09:18:35;5.83;;;4.80;;
10661;SDS011;5379;51.034;7.006;2022-10-14T09:21:13;6.13;;;5.00;;
10661;SDS011;5379;51.034;7.006;2022-10-14T09:23:52;6.13;;;5.63;;
10661;SDS011;5379;51.034;7.006;2022-10-14T09:26:24;5.53;;;5.07;;
10661;SDS011;5379;51.034;7.006;2022-10-14T09:28:55;5.33;;;4.27;;
10661;SDS011;5379;51.034;7.006;2022-10-14T09:31:22;7.13;;;5.17;;
10661;SDS011;5379;51.034;7.006;2022-10-14T09:33:49;7.63;;;5.23;;
10661;SDS011;5379;51.034;7.006;2022-10-14T09:36:17;5.07;;;4.57;;
10661;SDS011;5379;51.034;7.006;2022-10-14T09:38:46;5.20;;;4.70;;
10661;SDS011;5379;51.034;7.006;2022-10-14T09:41:15;6.07;;;5.00;;
10661;SDS011;5379;51.034;7.006;2022-10-14T09:46:51;4.90;;;4.50;;
10661;SDS011;5379;51.034;7.006;2022-10-14T09:49:26;6.03;;;5.37;;
10661;SDS011;5379;51.034;7.006;2022-10-14T09:51:59;5.87;;;5.20;;
10661;SDS011;5379;51.034;7.006;2022-10-14T09:54:27;5.37;;;4.87;;
10661;SDS011;5379;51.034;7.006;2022-10-14T09:56:57;5.20;;;4.70;;
10661;SDS011;5379;51.034;7.006;2022-10-14T09:59:27;6.00;;;5.33;;
10661;SDS011;5379;51.034;7.006;2022-10-14T10:01:56;5.70;;;5.10;;
10661;SDS011;5379;51.034;7.006;2022-10-14T10:04:30;7.27;;;5.03;;
10661;SDS011;5379;51.034;7.006;2022-10-14T10:07:01;6.23;;;5.10;;
10661;SDS011;5379;51.034;7.006;2022-10-14T10:09:30;9.93;;;4.73;;
10661;SDS011;5379;51.034;7.006;2022-10-14T10:11:58;4.97;;;4.53;;
10661;SDS011;5379;51.034;7.006;2022-10-14T10:14:26;6.40;;;4.93;;
10661;SDS011;5379;51.034;7.006;2022-10-14T10:19:48;7.33;;;4.47;;
10661;SDS011;5379;51.034;7.006;2022-10-14T10:22:30;4.93;;;4.53;;
10661;SDS011;5379;51.034;7.006;2022-10-14T10:25:15;9.03;;;5.10;;
10661;SDS011;5379;51.034;7.006;2022-10-14T10:27:50;6.53;;;5.30;;
10661;SDS011;5379;51.034;7.006;2022-10-14T10:30:22;6.90;;;5.20;;
10661;SDS011;5379;51.034;7.006;2022-10-14T10:35:58;7.20;;;5.20;;
10661;SDS011;5379;51.034;7.006;2022-10-14T10:38:33;11.10;;;6.00;;
10661;SDS011;5379;51.034;7.006;2022-10-14T10:41:14;10.40;;;5.67;;
10661;SDS011;5379;51.034;7.006;2022-10-14T10:43:57;6.40;;;5.90;;
10661;SDS011;5379;51.034;7.006;2022-10-14T10:46:50;6.53;;;4.80;;
10661;SDS011;5379;51.034;7.006;2022-10-14T10:49:34;7.90;;;5.13;;
10661;SDS011;5379;51.034;7.006;2022-10-14T10:52:14;5.63;;;4.90;;
10661;SDS011;5379;51.034;7.006;2022-10-14T10:54:48;6.23;;;5.63;;
10661;SDS011;5379;51.034;7.006;2022-10-14T10:57:26;7.80;;;5.17;;
10661;SDS011;5379;51.034;7.006;2022-10-14T11:00:06;7.17;;;5.60;;
10661;SDS011;5379;51.034;7.006;2022-10-14T11:02:54;10.83;;;5.27;;
10661;SDS011;5379;51.034;7.006;2022-10-14T11:05:41;9.20;;;4.90;;
10661;SDS011;5379;51.034;7.006;2022-10-14T11:08:18;6.40;;;5.10;;
10661;SDS011;5379;51.034;7.006;2022-10-14T11:11:25;5.80;;;5.17;;
10661;SDS011;5379;51.034;7.006;2022-10-14T11:14:14;6.70;;;5.70;;
10661;SDS011;5379;51.034;7.006;2022-10-14T11:16:58;8.33;;;5.50;;
10661;SDS011;5379;51.034;7.006;2022-10-14T11:19:34;5.60;;;5.07;;
10661;SDS011;5379;51.034;7.006;2022-10-14T11:22:11;5.50;;;5.00;;
10661;SDS011;5379;51.034;7.006;2022-10-14T11:24:55;6.40;;;5.47;;
10661;SDS011;5379;51.034;7.006;2022-10-14T11:27:34;5.63;;;5.13;;
10661;SDS011;5379;51.034;7.006;2022-10-14T11:30:12;6.23;;;5.23;;
10661;SDS011;5379;51.034;7.006;2022-10-14T11:32:52;6.33;;;5.00;;
10661;SDS011;5379;51.034;7.006;2022-10-14T11:35:31;6.80;;;5.27;;
10661;SDS011;5379;51.034;7.006;2022-10-14T11:38:12;8.07;;;5.00;;
10661;SDS011;5379;51.034;7.006;2022-10-14T11:40:51;5.77;;;5.27;;
10661;SDS011;5379;51.034;7.006;2022-10-14T11:43:25;6.33;;;5.17;;
10661;SDS011;5379;51.034;7.006;2022-10-14T11:46:06;8.60;;;6.73;;
10661;SDS011;5379;51.034;7.006;2022-10-14T11:48:37;8.17;;;6.13;;
10661;SDS011;5379;51.034;7.006;2022-10-14T11:51:11;6.57;;;5.80;;
10661;SDS011;5379;51.034;7.006;2022-10-14T11:53:55;9.13;;;6.70;;
10661;SDS011;5379;51.034;7.006;2022-10-14T11:56:38;8.07;;;6.30;;
10661;SDS011;5379;51.034;7.006;2022-10-14T11:59:20;6.70;;;6.00;;
10661;SDS011;5379;51.034;7.006;2022-10-14T12:01:56;7.50;;;6.70;;
10661;SDS011;5379;51.034;7.006;2022-10-14T12:04:29;9.60;;;6.03;;
10661;SDS011;5379;51.034;7.006;2022-10-14T12:07:00;6.77;;;6.07;;
10661;SDS011;5379;51.034;7.006;2022-10-14T12:09:35;9.63;;;6.33;;
10661;SDS011;5379;51.034;7.006;2022-10-14T12:12:08;6.93;;;6.17;;
10661;SDS011;5379;51.034;7.006;2022-10-14T12:14:40;6.97;;;6.27;;
10661;SDS011;5379;51.034;7.006;2022-10-14T12:17:13;7.47;;;6.83;;
10661;SDS011;5379;51.034;7.006;2022-10-14T12:19:44;6.90;;;6.30;;
10661;SDS011;5379;51.034;7.006;2022-10-14T12:22:13;7.70;;;6.97;;
10661;SDS011;5379;51.034;7.006;2022-10-14T12:24:44;10.70;;;6.17;;
10661;SDS011;5379;51.034;7.006;2022-10-14T12:27:16;6.60;;;5.97;;
10661;SDS011;5379;51.034;7.006;2022-10-14T12:29:45;9.07;;;6.60;;
10661;SDS011;5379;51.034;7.006;2022-10-14T12:32:21;7.63;;;6.43;;
10661;SDS011;5379;51.034;7.006;2022-10-14T12:34:50;7.47;;;6.53;;
10661;SDS011;5379;51.034;7.006;2022-10-14T12:40:25;7.97;;;6.80;;
10661;SDS011;5379;51.034;7.006;2022-10-14T12:42:59;7.67;;;5.47;;
10661;SDS011;5379;51.034;7.006;2022-10-14T12:45:39;6.73;;;6.13;;
10661;SDS011;5379;51.034;7.006;2022-10-14T12:48:14;7.17;;;5.37;;
10661;SDS011;5379;51.034;7.006;2022-10-14T12:50:46;5.90;;;5.30;;
10661;SDS011;5379;51.034;7.006;2022-10-14T12:53:15;5.77;;;5.27;;
10661;SDS011;5379;51.034;7.006;2022-10-14T12:55:47;6.20;;;5.10;;
10661;SDS011;5379;51.034;7.006;2022-10-14T12:58:22;5.37;;;4.87;;
10661;SDS011;5379;51.034;7.006;2022-10-14T13:00:53;8.37;;;5.40;;
10661;SDS011;5379;51.034;7.006;2022-10-14T13:03:23;6.30;;;4.70;;
10661;SDS011;5379;51.034;7.006;2022-10-14T13:05:52;6.63;;;5.17;;
10661;SDS011;5379;51.034;7.006;2022-10-14T13:12:10;5.77;;;4.97;;
10661;SDS011;5379;51.034;7.006;2022-10-14T13:15:00;6.70;;;5.20;;
10661;SDS011;5379;51.034;7.006;2022-10-14T13:17:29;5.93;;;4.97;;
10661;SDS011;5379;51.034;7.006;2022-10-14T13:23:14;11.77;;;5.30;;
10661;SDS011;5379;51.034;7.006;2022-10-14T13:26:12;5.10;;;4.63;;
10661;SDS011;5379;51.034;7.006;2022-10-14T13:28:50;8.20;;;5.50;;
10661;SDS011;5379;51.034;7.006;2022-10-14T13:31:28;7.93;;;3.70;;
10661;SDS011;5379;51.034;7.006;2022-10-14T13:34:05;4.53;;;3.83;;
10661;SDS011;5379;51.034;7.006;2022-10-14T13:36:40;7.67;;;4.27;;
10661;SDS011;5379;51.034;7.006;2022-10-14T13:39:16;7.47;;;4.20;;
10661;SDS011;5379;51.034;7.006;2022-10-14T13:41:43;4.50;;;4.10;;
10661;SDS011;5379;51.034;7.006;2022-10-14T13:44:13;4.30;;;3.90;;
10661;SDS011;5379;51.034;7.006;2022-10-14T13:46:42;5.63;;;4.40;;
10661;SDS011;5379;51.034;7.006;2022-10-14T13:49:13;8.60;;;4.73;;
10661;SDS011;5379;51.034;7.006;2022-10-14T13:51:44;5.50;;;4.93;;
10661;SDS011;5379;51.034;7.006;2022-10-14T13:54:16;4.70;;;3.90;;
10661;SDS011;5379;51.034;7.006;2022-10-14T13:56:54;4.53;;;3.90;;
10661;SDS011;5379;51.034;7.006;2022-10-14T13:59:23;4.23;;;3.73;;
10661;SDS011;5379;51.034;7.006;2022-10-14T14:01:53;5.67;;;3.90;;
10661;SDS011;5379;51.034;7.006;2022-10-14T14:04:23;3.90;;;3.60;;
10661;SDS011;5379;51.034;7.006;2022-10-14T14:06:52;3.90;;;3.53;;
10661;SDS011;5379;51.034;7.006;2022-10-14T14:09:21;3.80;;;3.50;;
10661;SDS011;5379;51.034;7.006;2022-10-14T14:11:50;9.20;;;6.63;;
10661;SDS011;5379;51.034;7.006;2022-10-14T14:14:20;8.40;;;4.13;;
10661;SDS011;5379;51.034;7.006;2022-10-14T14:16:50;4.50;;;4.00;;
10661;SDS011;5379;51.034;7.006;2022-10-14T14:19:24;5.53;;;4.20;;
10661;SDS011;5379;51.034;7.006;2022-10-14T14:22:03;8.20;;;4.70;;
10661;SDS011;5379;51.034;7.006;2022-10-14T14:24:32;5.37;;;4.57;;
10661;SDS011;5379;51.034;7.006;2022-10-14T14:26:59;4.20;;;3.80;;
10661;SDS011;5379;51.034;7.006;2022-10-14T14:29:27;3.83;;;3.53;;
10661;SDS011;5379;51.034;7.006;2022-10-14T14:31:59;3.60;;;3.30;;
10661;SDS011;5379;51.034;7.006;2022-10-14T14:34:26;3.90;;;3.60;;
10661;SDS011;5379;51.034;7.006;2022-10-14T14:36:53;3.90;;;3.57;;
10661;SDS011;5379;51.034;7.006;2022-10-14T14:39:24;3.77;;;3.47;;
10661;SDS011;5379;51.034;7.006;2022-10-14T14:41:53;3.97;;;3.67;;
10661;SDS011;5379;51.034;7.006;2022-10-14T14:44:23;4.10;;;3.53;;
10661;SDS011;5379;51.034;7.006;2022-10-14T14:46:54;4.80;;;3.40;;
10661;SDS011;5379;51.034;7.006;2022-10-14T14:49:25;3.73;;;3.50;;
10661;SDS011;5379;51.034;7.006;2022-10-14T14:51:54;4.87;;;3.33;;
10661;SDS011;5379;51.034;7.006;2022-10-14T14:54:22;3.83;;;3.33;;
10661;SDS011;5379;51.034;7.006;2022-10-14T14:56:51;6.70;;;3.77;;
10661;SDS011;5379;51.034;7.006;2022-10-14T14:59:25;3.97;;;3.57;;
10661;SDS011;5379;51.034;7.006;2022-10-14T15:01:54;4.60;;;3.83;;
10661;SDS011;5379;51.034;7.006;2022-10-14T15:04:23;4.23;;;3.87;;
10661;SDS011;5379;51.034;7.006;2022-10-14T15:06:56;4.97;;;3.93;;
10661;SDS011;5379;51.034;7.006;2022-10-14T15:09:31;4.70;;;3.93;;
10661;SDS011;5379;51.034;7.006;2022-10-14T15:12:02;4.03;;;3.63;;
10661;SDS011;5379;51.034;7.006;2022-10-14T15:14:33;4.10;;;3.60;;
10661;SDS011;5379;51.034;7.006;2022-10-14T15:17:19;5.73;;;3.60;;
10661;SDS011;5379;51.034;7.006;2022-10-14T15:19:52;5.33;;;3.67;;
10661;SDS011;5379;51.034;7.006;2022-10-14T15:22:21;8.03;;;3.97;;
10661;SDS011;5379;51.034;7.006;2022-10-14T15:25:00;3.60;;;3.40;;
10661;SDS011;5379;51.034;7.006;2022-10-14T15:27:30;3.37;;;3.13;;
10661;SDS011;5379;51.034;7.006;2022-10-14T15:30:16;4.50;;;3.47;;
10661;SDS011;5379;51.034;7.006;2022-10-14T15:32:48;3.40;;;3.10;;
10661;SDS011;5379;51.034;7.006;2022-10-14T15:35:18;3.53;;;3.23;;
10661;SDS011;5379;51.034;7.006;2022-10-14T15:37:48;4.07;;;3.73;;
10661;SDS011;5379;51.034;7.006;2022-10-14T15:40:16;4.33;;;3.90;;
10661;SDS011;5379;51.034;7.006;2022-10-14T15:42:45;4.97;;;4.53;;
10661;SDS011;5379;51.034;7.006;2022-10-14T15:45:13;6.07;;;4.37;;